Time;durP1;ratioP1;P1;durP2;ratioP2;P2;SDS_P1;SDS_P2;PMS_P1;PMS_P2;Temp;Humidity;BMP_temperature;BMP_pressure;BME280_temperature;BME280_humidity;BME280_pressure;Samples;Min_cycle;Max_cycle;Signal;HPM_P1;HPM_P2
2021/12/24 00:01:00;;;;;;;51.90;26.15;;;3.00;99.90;;;;;;5073157;28;20710;-74
2021/12/24 00:03:28;;;;;;;48.70;28.35;;;3.00;99.90;;;;;;5072975;28;20236;-74
2021/12/24 00:05:55;;;;;;;47.05;25.73;;;3.00;99.90;;;;;;5073061;28;20308;-74
2021/12/24 00:08:22;;;;;;;48.30;26.90;;;2.90;99.90;;;;;;5072901;28;20272;-74
2021/12/24 00:10:57;;;;;;;50.35;27.70;;;2.90;99.90;;;;;;5073079;28;20232;-73
2021/12/24 00:13:24;;;;;;;45.42;25.05;;;2.90;99.90;;;;;;5073050;28;20185;-74
2021/12/24 00:16:03;;;;;;;49.30;26.73;;;2.90;99.90;;;;;;5072825;28;20197;-74
2021/12/24 00:18:39;;;;;;;49.30;26.52;;;2.90;99.90;;;;;;5073091;28;20185;-74
2021/12/24 00:22:09;;;;;;;43.88;25.95;;;2.90;99.90;;;;;;5072765;28;20678;-74
2021/12/24 00:35:21;;;;;;;47.47;25.65;;;3.00;99.90;;;;;;5072614;28;20228;-74
2021/12/24 00:37:48;;;;;;;43.85;26.42;;;3.00;99.90;;;;;;5072836;28;20185;-73
2021/12/24 00:40:19;;;;;;;42.88;24.50;;;3.00;99.90;;;;;;5072625;28;20651;-73
2021/12/24 00:45:55;;;;;;;54.10;27.85;;;3.00;99.90;;;;;;5065828;28;20217;-74
2021/12/24 00:48:22;;;;;;;53.13;28.60;;;3.10;99.90;;;;;;5072696;28;20609;-73
2021/12/24 00:50:57;;;;;;;47.22;26.17;;;3.10;99.90;;;;;;5072585;28;20599;-74
2021/12/24 00:56:11;;;;;;;52.72;28.70;;;3.10;99.90;;;;;;5072548;28;20355;-74
2021/12/24 00:58:39;;;;;;;54.40;27.33;;;3.10;99.90;;;;;;5072581;28;20239;-73
2021/12/24 01:01:06;;;;;;;50.72;27.45;;;3.10;99.90;;;;;;5072507;28;20186;-74
2021/12/24 01:03:33;;;;;;;51.33;26.08;;;3.10;99.90;;;;;;5072365;28;20281;-73
2021/12/24 01:06:01;;;;;;;45.85;26.00;;;3.10;99.90;;;;;;5072708;28;20308;-74
2021/12/24 01:08:28;;;;;;;48.47;26.17;;;3.10;99.90;;;;;;5072480;28;20627;-74
2021/12/24 01:10:58;;;;;;;52.20;28.08;;;3.10;99.90;;;;;;5072428;28;20280;-73
2021/12/24 01:13:25;;;;;;;50.42;25.00;;;3.20;99.90;;;;;;5072469;28;20197;-73
2021/12/24 01:15:57;;;;;;;43.80;25.83;;;3.20;99.90;;;;;;5072308;28;20236;-74
2021/12/24 01:18:33;;;;;;;51.45;27.83;;;3.20;99.90;;;;;;5072306;28;20221;-74
2021/12/24 01:21:15;;;;;;;52.70;27.00;;;3.20;99.90;;;;;;5075978;28;20221;-74
2021/12/24 01:23:48;;;;;;;47.80;26.10;;;3.10;99.90;;;;;;5076110;28;20212;-74
2021/12/24 01:26:20;;;;;;;46.92;26.08;;;3.20;99.90;;;;;;5075815;28;20634;-74
2021/12/24 01:29:21;;;;;;;52.67;27.75;;;3.10;99.90;;;;;;5075898;28;20204;-74
2021/12/24 01:40:19;;;;;;;43.47;24.67;;;3.20;99.90;;;;;;5075688;28;20278;-74
2021/12/24 01:42:47;;;;;;;50.90;27.17;;;3.20;99.90;;;;;;5075669;28;20185;-74
2021/12/24 01:45:19;;;;;;;47.58;24.90;;;3.20;99.90;;;;;;5075522;28;20228;-73
2021/12/24 01:47:46;;;;;;;47.97;25.15;;;3.30;99.90;;;;;;5075969;28;20193;-74
2021/12/24 01:50:13;;;;;;;47.45;26.02;;;3.30;99.90;;;;;;5075805;28;20259;-74
2021/12/24 01:52:41;;;;;;;44.65;25.33;;;3.30;99.90;;;;;;5075748;28;20224;-74
2021/12/24 01:55:09;;;;;;;48.85;27.15;;;3.30;99.90;;;;;;5075486;28;20250;-74
2021/12/24 01:57:36;;;;;;;48.83;26.83;;;3.30;99.90;;;;;;5075424;28;20731;-74
2021/12/24 02:00:05;;;;;;;53.08;25.60;;;3.30;99.90;;;;;;5075167;28;20288;-74
2021/12/24 02:02:32;;;;;;;49.80;28.13;;;3.30;99.90;;;;;;5079800;28;20188;-75
2021/12/24 02:04:58;;;;;;;49.28;26.50;;;3.30;99.90;;;;;;5095578;28;20315;-74
2021/12/24 02:07:25;;;;;;;49.08;25.92;;;3.30;99.90;;;;;;5095549;28;20273;-74
2021/12/24 02:09:54;;;;;;;46.90;25.15;;;3.40;99.90;;;;;;5095258;28;20236;-74
2021/12/24 02:12:23;;;;;;;43.17;24.00;;;3.40;99.90;;;;;;5095202;28;20189;-75
2021/12/24 02:14:51;;;;;;;45.05;24.85;;;3.40;99.90;;;;;;5095352;28;20586;-74
2021/12/24 02:17:39;;;;;;;41.67;25.05;;;3.40;99.90;;;;;;5095375;28;20193;-74
2021/12/24 02:28:40;;;;;;;42.70;24.45;;;3.40;99.90;;;;;;5095016;28;20212;-74
2021/12/24 02:31:09;;;;;;;38.42;23.02;;;3.50;99.90;;;;;;5094827;28;20257;-74
2021/12/24 02:33:35;;;;;;;46.05;25.00;;;3.50;99.90;;;;;;5094704;28;20545;-74
2021/12/24 02:36:04;;;;;;;47.92;25.40;;;3.50;99.90;;;;;;5095075;28;20234;-74
2021/12/24 02:38:31;;;;;;;46.20;24.88;;;3.50;99.90;;;;;;5095033;28;20283;-74
2021/12/24 02:40:59;;;;;;;47.35;27.13;;;3.50;99.90;;;;;;5094854;28;20217;-74
2021/12/24 02:43:26;;;;;;;40.85;22.52;;;3.50;99.90;;;;;;5084575;28;20216;-74
2021/12/24 02:45:56;;;;;;;42.17;23.35;;;3.50;99.90;;;;;;5074200;28;20249;-74
2021/12/24 02:48:57;;;;;;;40.92;23.38;;;3.60;99.90;;;;;;5074444;28;20208;-74
2021/12/24 02:54:22;;;;;;;43.60;23.90;;;3.60;99.90;;;;;;5073953;28;20185;-74
2021/12/24 02:56:52;;;;;;;37.83;22.13;;;3.60;99.90;;;;;;5074372;28;20551;-74
2021/12/24 02:59:25;;;;;;;43.08;22.77;;;3.60;99.90;;;;;;5074258;28;20189;-74
2021/12/24 03:01:52;;;;;;;37.83;21.83;;;3.60;99.90;;;;;;5074310;28;20193;-74
2021/12/24 03:04:18;;;;;;;37.15;20.63;;;3.60;99.90;;;;;;5074021;28;20285;-74
2021/12/24 03:06:50;;;;;;;39.80;19.00;;;3.50;99.90;;;;;;5074025;28;20623;-74
2021/12/24 03:09:19;;;;;;;38.20;20.83;;;3.60;99.90;;;;;;5074065;28;20284;-74
2021/12/24 03:11:47;;;;;;;38.03;22.50;;;3.60;99.90;;;;;;5073806;28;20718;-74
2021/12/24 03:14:18;;;;;;;41.63;21.65;;;3.60;99.90;;;;;;5073870;28;20224;-74
2021/12/24 03:16:49;;;;;;;38.47;21.60;;;3.60;99.90;;;;;;5073917;28;20193;-74
2021/12/24 03:19:23;;;;;;;39.00;22.50;;;3.60;99.90;;;;;;5073661;28;20221;-74
2021/12/24 03:21:56;;;;;;;35.78;21.13;;;3.60;99.90;;;;;;5073644;28;20217;-74
2021/12/24 03:24:35;;;;;;;34.53;20.63;;;3.60;99.90;;;;;;5073670;28;20194;-74
2021/12/24 03:27:02;;;;;;;35.60;21.33;;;3.60;99.90;;;;;;5073673;28;20224;-74
2021/12/24 03:29:29;;;;;;;36.47;19.88;;;3.70;99.90;;;;;;5073541;28;20279;-74
2021/12/24 03:31:55;;;;;;;33.00;20.83;;;3.70;99.90;;;;;;5073827;28;20280;-74
2021/12/24 03:34:23;;;;;;;36.22;19.80;;;3.70;99.90;;;;;;5073626;28;20624;-74
2021/12/24 03:36:52;;;;;;;34.70;20.33;;;3.70;99.90;;;;;;5073629;28;20267;-74
2021/12/24 03:39:19;;;;;;;38.50;20.33;;;3.70;99.90;;;;;;5073352;28;20283;-74
2021/12/24 03:41:46;;;;;;;36.65;21.25;;;3.70;99.90;;;;;;5072862;28;20276;-74
2021/12/24 03:44:15;;;;;;;27.77;17.48;;;3.70;99.90;;;;;;5073012;28;20264;-74
2021/12/24 03:46:51;;;;;;;35.50;19.48;;;3.70;99.90;;;;;;5073383;28;20217;-74
2021/12/24 03:49:22;;;;;;;32.30;18.60;;;3.70;99.90;;;;;;5073138;28;20189;-74
2021/12/24 03:51:56;;;;;;;36.08;19.98;;;3.70;99.90;;;;;;5073359;28;20200;-75
2021/12/24 03:57:07;;;;;;;35.22;19.92;;;3.70;99.90;;;;;;5073222;28;20556;-75
2021/12/24 03:59:33;;;;;;;35.33;18.92;;;3.80;99.90;;;;;;5073151;28;20189;-74
2021/12/24 04:02:00;;;;;;;32.03;18.85;;;3.80;99.90;;;;;;5073117;28;20276;-74
2021/12/24 04:04:26;;;;;;;32.08;18.70;;;3.80;99.90;;;;;;5073178;28;20203;-74
2021/12/24 04:06:54;;;;;;;30.50;18.08;;;3.80;99.90;;;;;;5072932;28;20316;-74
2021/12/24 04:09:23;;;;;;;35.85;19.73;;;3.80;99.90;;;;;;5072949;28;20288;-74
2021/12/24 04:11:50;;;;;;;33.85;20.38;;;3.80;99.90;;;;;;5073113;28;20672;-74
2021/12/24 04:14:16;;;;;;;34.58;20.98;;;3.80;99.90;;;;;;5072841;28;20531;-74
2021/12/24 04:16:43;;;;;;;30.02;18.55;;;3.80;99.90;;;;;;5073326;28;20220;-74
2021/12/24 04:19:35;;;;;;;29.38;18.13;;;3.90;99.90;;;;;;5073014;28;20227;-74
2021/12/24 04:24:52;;;;;;;30.58;18.60;;;3.80;99.90;;;;;;5072763;28;20387;-74
2021/12/24 04:27:19;;;;;;;33.65;19.05;;;3.90;99.90;;;;;;5072932;28;20288;-74
2021/12/24 04:29:46;;;;;;;34.00;18.88;;;3.90;99.90;;;;;;5072705;28;20310;-74
2021/12/24 04:32:16;;;;;;;30.90;19.05;;;3.90;99.90;;;;;;5072658;28;20217;-75
2021/12/24 04:34:47;;;;;;;29.70;18.05;;;3.90;99.90;;;;;;5072822;28;20197;-75
2021/12/24 04:38:03;;;;;;;33.72;18.05;;;3.90;99.90;;;;;;5072868;28;20195;-75
2021/12/24 04:51:26;;;;;;;28.00;16.50;;;4.00;99.90;;;;;;5072577;28;20214;-75
2021/12/24 05:02:24;;;;;;;28.05;17.20;;;4.00;99.90;;;;;;5076762;28;20193;-75
2021/12/24 05:04:55;;;;;;;29.80;16.88;;;4.10;99.90;;;;;;5076404;28;20189;-74
2021/12/24 05:07:55;;;;;;;27.80;15.32;;;4.10;99.90;;;;;;5076600;28;20239;-75
2021/12/24 05:10:25;;;;;;;27.40;14.60;;;4.10;99.90;;;;;;5076021;28;20197;-75
2021/12/24 05:12:51;;;;;;;26.55;15.70;;;4.10;99.90;;;;;;5076327;28;20200;-75
2021/12/24 05:15:18;;;;;;;25.17;14.68;;;4.20;99.90;;;;;;5076112;28;20621;-74
2021/12/24 05:18:03;;;;;;;22.30;12.90;;;4.20;99.90;;;;;;5076046;28;20193;-75
2021/12/24 05:23:16;;;;;;;23.25;13.43;;;4.20;99.90;;;;;;5076395;28;20315;-75
2021/12/24 05:25:46;;;;;;;20.77;13.82;;;4.30;99.90;;;;;;5075833;28;20300;-75
2021/12/24 05:28:13;;;;;;;18.25;12.10;;;4.20;99.90;;;;;;5076173;28;20592;-75
2021/12/24 05:30:41;;;;;;;22.98;13.85;;;4.30;99.90;;;;;;5075796;28;20190;-75
2021/12/24 05:33:12;;;;;;;22.95;13.18;;;4.40;99.90;;;;;;5076103;28;20246;-75
2021/12/24 05:35:38;;;;;;;22.92;12.23;;;4.30;99.90;;;;;;5075831;28;20228;-75
2021/12/24 05:38:06;;;;;;;18.02;11.77;;;4.40;99.90;;;;;;5075807;28;20283;-75
2021/12/24 05:40:32;;;;;;;17.27;11.40;;;4.40;99.90;;;;;;5075594;28;20275;-75
2021/12/24 05:43:00;;;;;;;24.65;11.63;;;4.40;99.90;;;;;;5075533;28;20272;-75
2021/12/24 05:45:27;;;;;;;22.88;11.48;;;4.40;99.90;;;;;;5075605;28;20219;-75
2021/12/24 05:47:53;;;;;;;17.42;11.27;;;4.40;99.90;;;;;;5075589;28;20231;-75
2021/12/24 05:50:20;;;;;;;16.10;10.90;;;4.40;99.90;;;;;;5075560;28;20618;-75
2021/12/24 05:52:47;;;;;;;15.55;9.65;;;4.50;99.90;;;;;;5075919;28;20622;-75
2021/12/24 05:55:13;;;;;;;13.18;9.68;;;4.50;99.90;;;;;;5075282;28;20252;-75
2021/12/24 05:57:40;;;;;;;16.05;9.68;;;4.50;99.90;;;;;;5075291;28;20280;-75
2021/12/24 06:00:10;;;;;;;14.23;10.43;;;4.50;99.90;;;;;;5075654;28;20189;-75
2021/12/24 06:02:37;;;;;;;12.00;8.90;;;4.50;99.90;;;;;;5075567;28;20221;-75
2021/12/24 06:05:04;;;;;;;12.70;8.23;;;4.60;99.90;;;;;;5074790;28;20280;-75
2021/12/24 06:07:30;;;;;;;11.25;7.25;;;4.60;99.90;;;;;;5075054;28;20249;-75
2021/12/24 06:09:57;;;;;;;12.45;7.88;;;4.60;99.90;;;;;;5075112;28;20284;-75
2021/12/24 06:12:23;;;;;;;11.25;8.10;;;4.60;99.90;;;;;;5075004;28;20280;-75
2021/12/24 06:14:53;;;;;;;12.00;7.55;;;4.60;99.90;;;;;;5075398;28;20235;-75
2021/12/24 06:17:23;;;;;;;11.40;7.13;;;4.70;99.90;;;;;;5075151;28;20197;-75
2021/12/24 06:19:50;;;;;;;10.90;7.03;;;4.80;99.90;;;;;;5074908;28;20675;-75
2021/12/24 06:22:17;;;;;;;7.88;5.88;;;4.80;99.90;;;;;;5074668;28;20407;-75
2021/12/24 06:24:43;;;;;;;7.72;6.10;;;4.80;99.90;;;;;;5074761;28;20228;-75
2021/12/24 06:27:10;;;;;;;8.90;6.10;;;4.80;99.90;;;;;;5074893;28;20309;-75
2021/12/24 06:29:37;;;;;;;8.63;6.03;;;4.80;99.90;;;;;;5074999;28;20227;-75
2021/12/24 06:32:05;;;;;;;7.47;5.45;;;4.80;99.90;;;;;;5074752;28;20612;-75
2021/12/24 06:34:32;;;;;;;6.07;4.85;;;4.80;99.90;;;;;;5074779;28;20224;-75
2021/12/24 06:37:00;;;;;;;7.35;5.53;;;4.90;99.90;;;;;;5074561;28;20276;-75
2021/12/24 06:39:27;;;;;;;6.13;5.50;;;4.90;99.90;;;;;;5074778;28;20263;-75
2021/12/24 06:41:54;;;;;;;7.28;4.75;;;5.00;99.90;;;;;;5074690;28;20244;-75
2021/12/24 06:44:21;;;;;;;9.10;5.00;;;5.00;99.90;;;;;;5074519;28;20189;-75
2021/12/24 06:46:48;;;;;;;6.05;5.45;;;5.00;99.90;;;;;;5074421;28;20213;-75
2021/12/24 06:49:14;;;;;;;8.23;5.18;;;5.10;99.90;;;;;;5074578;28;20223;-75
2021/12/24 06:51:42;;;;;;;5.50;4.68;;;5.10;99.90;;;;;;5074197;28;20642;-75
2021/12/24 06:54:10;;;;;;;4.50;4.10;;;5.20;99.90;;;;;;5074797;28;20193;-75
2021/12/24 06:56:37;;;;;;;4.80;4.30;;;5.20;99.90;;;;;;5074410;28;20658;-75
2021/12/24 06:59:04;;;;;;;4.70;4.30;;;5.20;99.90;;;;;;5074295;28;20220;-75
2021/12/24 07:01:31;;;;;;;5.43;4.22;;;5.20;99.90;;;;;;5074182;28;20247;-75
2021/12/24 07:03:58;;;;;;;5.15;4.75;;;5.20;99.90;;;;;;5074074;28;20246;-75
2021/12/24 07:06:24;;;;;;;5.28;4.72;;;5.20;99.90;;;;;;5074124;28;20290;-75
2021/12/24 07:08:52;;;;;;;4.50;4.10;;;5.30;99.90;;;;;;5074123;28;20285;-75
2021/12/24 07:11:19;;;;;;;6.15;5.07;;;5.30;99.90;;;;;;5073974;28;20280;-75
2021/12/24 07:13:45;;;;;;;5.07;4.63;;;5.30;99.90;;;;;;5073958;28;20243;-75
2021/12/24 07:16:12;;;;;;;4.00;3.70;;;5.30;99.90;;;;;;5073340;28;20283;-75
2021/12/24 07:18:39;;;;;;;4.93;4.50;;;5.30;99.90;;;;;;5073453;28;20193;-75
2021/12/24 07:21:05;;;;;;;5.15;4.65;;;5.40;99.90;;;;;;5073668;28;20225;-75
2021/12/24 07:23:32;;;;;;;4.72;4.30;;;5.40;99.90;;;;;;5073878;28;20272;-75
2021/12/24 07:26:00;;;;;;;4.63;4.10;;;5.40;99.90;;;;;;5073707;28;20215;-75
2021/12/24 07:28:26;;;;;;;4.22;3.83;;;5.40;99.90;;;;;;5073632;28;20284;-75
2021/12/24 07:30:53;;;;;;;4.57;4.25;;;5.40;99.90;;;;;;5073604;28;20220;-75
2021/12/24 07:33:20;;;;;;;5.35;4.20;;;5.40;99.90;;;;;;5073326;28;20284;-75
2021/12/24 07:35:47;;;;;;;4.10;3.70;;;5.50;99.90;;;;;;5073381;28;20696;-74
2021/12/24 07:38:14;;;;;;;4.65;4.28;;;5.40;99.90;;;;;;5073562;28;20710;-75
2021/12/24 07:40:41;;;;;;;5.05;4.65;;;5.50;99.90;;;;;;5073569;28;20291;-75
2021/12/24 07:43:09;;;;;;;7.30;3.90;;;5.60;99.90;;;;;;5073266;28;20190;-75
2021/12/24 07:45:38;;;;;;;5.38;4.18;;;5.60;99.90;;;;;;5073360;28;20645;-75
2021/12/24 07:48:12;;;;;;;3.33;3.05;;;5.60;99.90;;;;;;5073017;28;20229;-75
2021/12/24 07:53:23;;;;;;;3.72;3.40;;;5.60;99.90;;;;;;5073248;28;20750;-75
2021/12/24 07:55:49;;;;;;;3.53;3.15;;;5.70;99.90;;;;;;5073251;28;20225;-75
2021/12/24 07:58:18;;;;;;;6.50;3.60;;;5.70;99.90;;;;;;5073220;28;20626;-75
2021/12/24 08:00:45;;;;;;;3.53;3.22;;;5.70;99.90;;;;;;5073148;28;20243;-75
2021/12/24 08:03:12;;;;;;;3.60;3.30;;;5.70;99.90;;;;;;5073180;28;20239;-75
2021/12/24 08:05:41;;;;;;;2.80;2.60;;;5.80;99.90;;;;;;5073229;28;20526;-75
2021/12/24 08:08:08;;;;;;;2.85;2.60;;;5.80;99.90;;;;;;5072944;28;20217;-75
2021/12/24 08:10:37;;;;;;;4.10;3.80;;;5.80;99.90;;;;;;5073149;28;20281;-75
2021/12/24 08:13:05;;;;;;;4.00;3.08;;;5.90;99.90;;;;;;5072896;28;20199;-75
2021/12/24 08:15:33;;;;;;;3.80;3.40;;;5.90;99.90;;;;;;5073067;28;20680;-75
2021/12/24 08:17:59;;;;;;;3.25;3.03;;;5.90;99.90;;;;;;5072824;28;20193;-75
2021/12/24 08:20:27;;;;;;;3.42;3.10;;;5.90;99.90;;;;;;5073030;28;20276;-75
2021/12/24 08:22:56;;;;;;;5.10;4.18;;;5.90;99.90;;;;;;5072612;28;20225;-75
2021/12/24 08:25:23;;;;;;;5.20;4.80;;;6.00;99.90;;;;;;5072873;28;20189;-75
2021/12/24 08:27:50;;;;;;;3.40;3.15;;;6.00;99.90;;;;;;5074118;28;20804;-75
2021/12/24 08:30:17;;;;;;;3.03;2.83;;;6.00;99.90;;;;;;5079474;28;20279;-75
2021/12/24 08:32:45;;;;;;;3.10;2.90;;;6.00;99.90;;;;;;5079511;28;20216;-74
2021/12/24 08:35:14;;;;;;;3.17;2.92;;;6.00;99.90;;;;;;5079528;28;20231;-75
2021/12/24 08:37:41;;;;;;;3.63;3.33;;;6.10;99.90;;;;;;5079348;28;20224;-75
2021/12/24 08:40:09;;;;;;;4.07;3.78;;;6.10;99.90;;;;;;5079263;28;20284;-75
2021/12/24 08:42:36;;;;;;;3.90;3.60;;;6.10;99.90;;;;;;5079382;28;20518;-75
2021/12/24 08:45:03;;;;;;;3.65;3.35;;;6.20;99.90;;;;;;5079485;28;20619;-75
2021/12/24 08:47:29;;;;;;;3.10;2.90;;;6.20;99.90;;;;;;5079280;28;20643;-75
2021/12/24 08:49:57;;;;;;;3.05;2.75;;;6.20;99.90;;;;;;5079369;28;20473;-75
2021/12/24 08:52:24;;;;;;;2.83;2.63;;;6.30;99.90;;;;;;5079168;28;20229;-75
2021/12/24 08:54:51;;;;;;;3.27;3.07;;;6.40;99.90;;;;;;5079527;28;20607;-75
2021/12/24 08:57:17;;;;;;;3.15;2.80;;;6.40;99.90;;;;;;5079258;28;20534;-75
2021/12/24 08:59:44;;;;;;;3.20;3.00;;;6.50;99.90;;;;;;5079289;28;20700;-75
2021/12/24 09:02:10;;;;;;;3.50;3.30;;;6.50;99.90;;;;;;5079395;28;20533;-75
2021/12/24 09:04:39;;;;;;;3.40;3.20;;;6.50;99.90;;;;;;5079111;28;20193;-75
2021/12/24 09:07:07;;;;;;;4.00;2.80;;;6.50;99.90;;;;;;5078692;28;20299;-75
2021/12/24 09:09:34;;;;;;;2.85;2.65;;;6.50;99.90;;;;;;5079190;28;20543;-75
2021/12/24 09:12:00;;;;;;;2.72;2.53;;;6.50;99.90;;;;;;5079256;28;20711;-75
2021/12/24 09:14:27;;;;;;;2.33;2.20;;;6.50;99.90;;;;;;5078904;28;20224;-75
2021/12/24 09:16:53;;;;;;;2.45;2.35;;;6.50;99.90;;;;;;5079194;28;20279;-75
2021/12/24 09:19:24;;;;;;;3.10;2.80;;;6.50;99.90;;;;;;5079027;28;20247;-75
2021/12/24 09:21:51;;;;;;;2.38;2.17;;;6.50;99.90;;;;;;5078937;28;20297;-75
2021/12/24 09:24:21;;;;;;;3.20;2.90;;;6.60;99.90;;;;;;5079273;28;20536;-75
2021/12/24 09:26:47;;;;;;;2.75;2.55;;;6.60;99.90;;;;;;5078900;28;20686;-75
2021/12/24 09:29:14;;;;;;;2.00;1.90;;;6.70;99.90;;;;;;5078958;28;20276;-75
2021/12/24 09:31:40;;;;;;;2.27;2.17;;;6.70;99.90;;;;;;5078952;28;20616;-75
2021/12/24 09:34:07;;;;;;;2.30;2.20;;;6.70;99.90;;;;;;5078784;28;20565;-75
2021/12/24 09:36:34;;;;;;;2.70;2.50;;;6.70;99.90;;;;;;5079305;28;20232;-75
2021/12/24 09:39:04;;;;;;;2.40;2.20;;;6.70;99.90;;;;;;5078621;28;20458;-75
2021/12/24 09:41:32;;;;;;;2.47;1.92;;;6.70;99.90;;;;;;5075488;28;20792;-75
2021/12/24 09:44:00;;;;;;;2.28;2.17;;;6.70;99.90;;;;;;5075470;28;20236;-75
2021/12/24 09:46:28;;;;;;;2.25;2.10;;;6.70;99.90;;;;;;5075593;28;20199;-75
2021/12/24 09:48:54;;;;;;;1.75;1.65;;;6.70;99.90;;;;;;5075535;28;20221;-75
2021/12/24 09:51:23;;;;;;;2.30;2.10;;;6.70;99.90;;;;;;5075563;28;20223;-75
2021/12/24 09:53:50;;;;;;;1.90;1.80;;;6.70;99.90;;;;;;5075495;28;20220;-75
2021/12/24 09:56:16;;;;;;;2.10;2.00;;;6.60;99.90;;;;;;5075785;28;20542;-75
2021/12/24 09:58:44;;;;;;;3.95;2.45;;;6.60;99.90;;;;;;5075494;28;20287;-75
2021/12/24 10:01:30;;;;;;;2.05;1.95;;;6.60;99.90;;;;;;5075605;28;20618;-75
2021/12/24 10:04:05;;;;;;;2.33;2.13;;;6.70;99.90;;;;;;5075524;28;20255;-75
2021/12/24 10:06:32;;;;;;;2.57;2.37;;;6.70;99.90;;;;;;5075508;28;20279;-75
2021/12/24 10:09:07;;;;;;;2.35;2.15;;;6.70;99.90;;;;;;5075266;28;20942;-75
2021/12/24 10:11:49;;;;;;;2.33;2.13;;;6.70;99.90;;;;;;5075227;28;20188;-75
2021/12/24 10:14:19;;;;;;;2.90;2.70;;;6.70;99.90;;;;;;5075381;28;20194;-75
2021/12/24 10:16:47;;;;;;;2.70;2.50;;;6.70;99.90;;;;;;5075377;28;20556;-75
2021/12/24 10:19:15;;;;;;;5.85;3.30;;;6.70;99.90;;;;;;5075190;28;20323;-75
2021/12/24 10:21:42;;;;;;;3.00;2.80;;;6.70;99.90;;;;;;5074872;28;20303;-75
2021/12/24 10:24:15;;;;;;;2.38;2.28;;;6.70;99.90;;;;;;5074821;28;20228;-75
2021/12/24 10:26:48;;;;;;;2.10;2.00;;;6.70;99.90;;;;;;5074788;28;20231;-75
2021/12/24 10:29:18;;;;;;;2.28;2.13;;;6.70;99.90;;;;;;5074779;28;20741;-75
2021/12/24 10:31:47;;;;;;;2.70;2.50;;;6.70;99.90;;;;;;5074815;28;20255;-75
2021/12/24 10:34:20;;;;;;;2.60;2.40;;;6.70;99.90;;;;;;5074637;28;20197;-74
2021/12/24 10:37:03;;;;;;;2.35;2.25;;;6.70;99.90;;;;;;5074614;28;20451;-75
2021/12/24 10:39:33;;;;;;;4.10;2.50;;;6.70;99.90;;;;;;5074917;28;20223;-75
2021/12/24 10:42:02;;;;;;;3.25;2.70;;;6.70;99.90;;;;;;5074748;28;20302;-75
2021/12/24 10:44:33;;;;;;;2.80;2.60;;;6.70;99.90;;;;;;5074428;28;20185;-75
2021/12/24 10:47:03;;;;;;;3.00;2.80;;;6.80;99.90;;;;;;5074408;28;22100;-75
2021/12/24 10:52:29;;;;;;;4.03;3.70;;;7.00;99.90;;;;;;5073243;28;20446;-75
2021/12/24 10:54:58;;;;;;;3.87;3.57;;;7.00;99.90;;;;;;5074255;28;20193;-74
2021/12/24 10:57:26;;;;;;;2.63;2.42;;;7.00;99.90;;;;;;5074209;28;20491;-75
2021/12/24 10:59:56;;;;;;;2.30;2.10;;;6.90;99.90;;;;;;5074293;28;20291;-75
2021/12/24 11:02:28;;;;;;;3.40;2.92;;;6.90;99.90;;;;;;5074356;28;20268;-75
2021/12/24 11:04:55;;;;;;;7.50;2.90;;;6.90;99.90;;;;;;5074076;28;20280;-75
2021/12/24 11:07:33;;;;;;;2.53;2.33;;;6.80;99.90;;;;;;5073971;28;20609;-75
2021/12/24 11:10:13;;;;;;;2.13;1.92;;;6.80;99.90;;;;;;5073863;28;20280;-75
2021/12/24 11:12:41;;;;;;;2.47;2.25;;;6.80;99.90;;;;;;5074116;28;20583;-75
2021/12/24 11:15:24;;;;;;;2.80;2.30;;;6.70;99.90;;;;;;5073934;28;20189;-75
2021/12/24 11:17:53;;;;;;;1.83;1.60;;;6.60;99.90;;;;;;5074005;28;20451;-75
2021/12/24 11:20:20;;;;;;;1.60;1.50;;;6.60;99.90;;;;;;5073729;28;20271;-75
2021/12/24 11:22:59;;;;;;;1.65;1.55;;;6.60;99.90;;;;;;5073670;28;20562;-75
2021/12/24 11:25:29;;;;;;;1.48;1.38;;;6.40;99.90;;;;;;5073908;28;20577;-74
2021/12/24 11:27:55;;;;;;;1.50;1.40;;;6.30;99.90;;;;;;5073735;28;20225;-75
2021/12/24 11:30:26;;;;;;;1.30;1.20;;;6.40;99.90;;;;;;5073619;28;20547;-75
2021/12/24 11:32:52;;;;;;;1.52;1.30;;;6.40;99.90;;;;;;5073779;28;20785;-75
2021/12/24 11:35:19;;;;;;;1.60;1.50;;;6.40;99.90;;;;;;5073586;28;20280;-75
2021/12/24 11:37:48;;;;;;;1.45;1.35;;;6.40;99.90;;;;;;5073700;28;20226;-75
2021/12/24 11:40:18;;;;;;;1.63;1.52;;;6.40;99.90;;;;;;5073561;28;20189;-75
2021/12/24 11:42:50;;;;;;;1.20;1.10;;;6.40;99.90;;;;;;5073450;28;20649;-74
2021/12/24 11:45:17;;;;;;;1.58;1.48;;;6.40;99.90;;;;;;5073347;28;20231;-75
2021/12/24 11:47:45;;;;;;;1.30;1.00;;;6.40;99.90;;;;;;5073348;28;20296;-74
2021/12/24 11:50:12;;;;;;;1.55;1.45;;;6.30;99.90;;;;;;5073292;28;20862;-74
2021/12/24 11:52:40;;;;;;;1.13;1.02;;;6.20;99.90;;;;;;5073392;28;20601;-75
2021/12/24 11:55:07;;;;;;;1.27;1.17;;;6.20;99.90;;;;;;5073191;28;20193;-75
2021/12/24 11:57:34;;;;;;;1.40;1.30;;;6.20;99.90;;;;;;5073270;28;20631;-74
2021/12/24 12:00:10;;;;;;;1.50;1.40;;;6.20;99.90;;;;;;5073072;28;20599;-74
2021/12/24 12:02:43;;;;;;;1.58;1.48;;;6.20;99.90;;;;;;5072723;28;20216;-75
2021/12/24 12:05:16;;;;;;;1.88;1.40;;;6.10;99.90;;;;;;5073080;28;20185;-74
2021/12/24 12:07:43;;;;;;;1.20;1.10;;;5.90;99.90;;;;;;5073149;28;20744;-74
2021/12/24 12:10:10;;;;;;;1.20;1.10;;;5.80;99.90;;;;;;5072922;28;20276;-75
2021/12/24 12:12:41;;;;;;;1.95;1.70;;;5.70;99.90;;;;;;5073002;28;20193;-75
2021/12/24 12:15:24;;;;;;;1.75;1.25;;;5.60;99.90;;;;;;5073029;28;20189;-74
2021/12/24 12:17:52;;;;;;;1.38;1.20;;;5.50;99.90;;;;;;5071049;28;20281;-75
2021/12/24 12:20:45;;;;;;;1.13;1.00;;;5.40;99.90;;;;;;5072863;28;20224;-75
2021/12/24 12:23:47;;;;;;;2.60;1.70;;;5.40;99.90;;;;;;5073423;28;20193;-75
2021/12/24 12:26:33;;;;;;;1.48;0.90;;;5.30;99.90;;;;;;5072985;28;20189;-74
2021/12/24 12:29:24;;;;;;;1.17;0.98;;;5.10;99.90;;;;;;5072806;28;20217;-74
2021/12/24 12:31:57;;;;;;;4.70;2.03;;;5.00;99.90;;;;;;5073015;28;20251;-74
2021/12/24 12:34:52;;;;;;;8.07;1.92;;;4.90;99.90;;;;;;5072796;28;20640;-75
2021/12/24 12:37:23;;;;;;;3.75;1.50;;;4.80;99.90;;;;;;5059665;28;20257;-75
2021/12/24 12:39:51;;;;;;;16.38;2.63;;;4.80;99.90;;;;;;5072847;28;20280;-75
2021/12/24 12:42:22;;;;;;;1.58;1.48;;;4.70;99.90;;;;;;5072800;28;20280;-74
2021/12/24 12:44:52;;;;;;;1.40;1.30;;;4.70;99.90;;;;;;5072752;28;20235;-75
2021/12/24 12:47:21;;;;;;;1.10;1.00;;;4.80;99.90;;;;;;5072722;28;20616;-75
2021/12/24 12:49:48;;;;;;;1.10;1.00;;;4.70;99.90;;;;;;5072516;28;20204;-75
2021/12/24 12:52:31;;;;;;;1.20;1.10;;;4.70;99.90;;;;;;5072576;28;20193;-75
2021/12/24 12:54:58;;;;;;;1.30;1.00;;;4.60;99.90;;;;;;5055440;28;20661;-75
2021/12/24 12:57:30;;;;;;;0.82;0.82;;;4.50;99.90;;;;;;5052612;28;20221;-75
2021/12/24 13:00:27;;;;;;;1.20;1.10;;;4.50;99.90;;;;;;5052518;28;20237;-75
2021/12/24 13:03:09;;;;;;;1.10;1.00;;;4.40;99.90;;;;;;5052697;28;20547;-75
2021/12/24 13:06:02;;;;;;;1.52;1.42;;;4.20;99.90;;;;;;5052689;28;20197;-75
2021/12/24 13:08:32;;;;;;;1.40;1.30;;;4.10;99.90;;;;;;5052438;28;20306;-75
2021/12/24 13:11:01;;;;;;;1.30;1.20;;;4.00;99.90;;;;;;5052336;28;20325;-75
2021/12/24 13:13:28;;;;;;;2.42;1.52;;;3.80;99.90;;;;;;5052524;28;20196;-75
2021/12/24 13:15:55;;;;;;;1.70;1.60;;;3.70;99.90;;;;;;5054979;28;20285;-75
2021/12/24 13:18:29;;;;;;;1.58;1.35;;;3.70;99.90;;;;;;5056241;28;20194;-75
2021/12/24 13:23:55;;;;;;;1.88;1.77;;;3.70;99.90;;;;;;4994492;28;20188;-75
2021/12/24 13:26:22;;;;;;;2.28;2.00;;;3.80;99.90;;;;;;5041205;28;20284;-75
2021/12/24 13:29:01;;;;;;;2.13;1.92;;;3.80;99.90;;;;;;5056143;28;20221;-75
2021/12/24 13:31:29;;;;;;;2.67;2.47;;;3.80;99.90;;;;;;5055871;28;20606;-75
2021/12/24 13:33:57;;;;;;;3.13;2.92;;;3.80;99.90;;;;;;5055730;28;20284;-75
2021/12/24 13:36:25;;;;;;;4.65;4.22;;;3.70;99.90;;;;;;5055855;28;20282;-75
2021/12/24 13:38:52;;;;;;;4.35;4.05;;;3.70;99.90;;;;;;5055858;28;20225;-75
2021/12/24 13:41:25;;;;;;;5.10;4.70;;;3.70;99.90;;;;;;5055724;28;20284;-75
2021/12/24 13:43:51;;;;;;;5.10;4.65;;;3.60;99.90;;;;;;5069116;28;20193;-75
2021/12/24 13:46:18;;;;;;;4.70;4.30;;;3.60;99.90;;;;;;5075558;28;20239;-75
2021/12/24 13:49:07;;;;;;;4.40;4.00;;;3.50;99.90;;;;;;5075955;28;20308;-75
2021/12/24 13:57:01;;;;;;;5.22;4.72;;;3.40;99.90;;;;;;5073583;28;20204;-75
2021/12/24 13:59:28;;;;;;;4.93;4.53;;;3.40;99.90;;;;;;5075542;28;20193;-75
2021/12/24 14:01:55;;;;;;;5.05;4.55;;;3.40;99.90;;;;;;5075154;28;20255;-75
2021/12/24 14:04:23;;;;;;;5.03;4.53;;;3.40;99.90;;;;;;5075300;28;20193;-75
2021/12/24 14:06:54;;;;;;;5.60;5.10;;;3.40;99.90;;;;;;5075239;28;20193;-75
2021/12/24 14:09:23;;;;;;;4.40;4.10;;;3.40;99.90;;;;;;5075054;28;20221;-75
2021/12/24 14:11:52;;;;;;;5.85;5.35;;;3.30;99.90;;;;;;5075286;28;20224;-75
2021/12/24 14:14:25;;;;;;;5.40;4.90;;;3.30;99.90;;;;;;5075258;28;20216;-75
2021/12/24 14:17:06;;;;;;;5.70;5.15;;;3.20;99.90;;;;;;5075058;28;20193;-75
2021/12/24 14:19:47;;;;;;;5.05;4.55;;;3.20;99.90;;;;;;5074967;28;20196;-75
2021/12/24 14:22:15;;;;;;;6.40;5.70;;;3.20;99.90;;;;;;5074840;28;20225;-75